sensor_id;sensor_type;location;lat;lon;timestamp;temperature;humidity
10443;DHT22;5269;51.146;16.986;2023-03-01T00:00:19;-3.70;1.00
10443;DHT22;5269;51.146;16.986;2023-03-01T00:02:46;-3.80;99.90
10443;DHT22;5269;51.146;16.986;2023-03-01T00:05:12;-3.80;1.00
10443;DHT22;5269;51.146;16.986;2023-03-01T00:07:40;-3.70;99.90
10443;DHT22;5269;51.146;16.986;2023-03-01T00:10:08;-3.80;1.00
10443;DHT22;5269;51.146;16.986;2023-03-01T00:12:35;-3.80;99.90
10443;DHT22;5269;51.146;16.986;2023-03-01T00:15:04;-3.90;99.90
10443;DHT22;5269;51.146;16.986;2023-03-01T00:17:31;-3.90;99.90
10443;DHT22;5269;51.146;16.986;2023-03-01T00:19:58;-3.80;99.90
10443;DHT22;5269;51.146;16.986;2023-03-01T00:22:26;-3.80;99.90
10443;DHT22;5269;51.146;16.986;2023-03-01T00:24:54;-3.80;99.90
10443;DHT22;5269;51.146;16.986;2023-03-01T00:27:21;-3.60;99.90
10443;DHT22;5269;51.146;16.986;2023-03-01T00:29:48;-3.60;99.90
10443;DHT22;5269;51.146;16.986;2023-03-01T00:32:16;-3.60;99.90
10443;DHT22;5269;51.146;16.986;2023-03-01T00:34:43;-3.70;99.90
10443;DHT22;5269;51.146;16.986;2023-03-01T00:37:19;-3.80;99.90
10443;DHT22;5269;51.146;16.986;2023-03-01T00:39:46;-3.90;99.90
10443;DHT22;5269;51.146;16.986;2023-03-01T00:42:13;-4.00;99.90
10443;DHT22;5269;51.146;16.986;2023-03-01T00:44:40;-4.00;99.90
10443;DHT22;5269;51.146;16.986;2023-03-01T00:47:07;-4.00;99.90
10443;DHT22;5269;51.146;16.986;2023-03-01T00:49:35;-3.90;99.90
10443;DHT22;5269;51.146;16.986;2023-03-01T00:52:02;-3.90;99.90
10443;DHT22;5269;51.146;16.986;2023-03-01T00:54:29;-3.90;99.90
10443;DHT22;5269;51.146;16.986;2023-03-01T00:56:56;-4.00;99.90
10443;DHT22;5269;51.146;16.986;2023-03-01T00:59:23;-4.10;99.90
10443;DHT22;5269;51.146;16.986;2023-03-01T01:01:50;-4.20;99.90
10443;DHT22;5269;51.146;16.986;2023-03-01T01:04:16;-4.30;99.90
10443;DHT22;5269;51.146;16.986;2023-03-01T01:06:46;-4.30;99.90
10443;DHT22;5269;51.146;16.986;2023-03-01T01:09:15;-4.30;99.90
10443;DHT22;5269;51.146;16.986;2023-03-01T01:11:44;-4.20;99.90
10443;DHT22;5269;51.146;16.986;2023-03-01T01:14:11;-4.10;99.90
10443;DHT22;5269;51.146;16.986;2023-03-01T01:19:05;-3.80;99.90
10443;DHT22;5269;51.146;16.986;2023-03-01T01:21:32;-3.90;99.90
10443;DHT22;5269;51.146;16.986;2023-03-01T01:24:02;-4.00;99.90
10443;DHT22;5269;51.146;16.986;2023-03-01T01:26:31;-4.10;99.90
10443;DHT22;5269;51.146;16.986;2023-03-01T01:29:00;-4.20;99.90
10443;DHT22;5269;51.146;16.986;2023-03-01T01:31:27;-4.30;99.90
10443;DHT22;5269;51.146;16.986;2023-03-01T01:33:55;-4.30;99.90
10443;DHT22;5269;51.146;16.986;2023-03-01T01:36:23;-4.40;99.90
10443;DHT22;5269;51.146;16.986;2023-03-01T01:38:50;-4.40;99.90
10443;DHT22;5269;51.146;16.986;2023-03-01T01:41:19;-4.40;99.90
10443;DHT22;5269;51.146;16.986;2023-03-01T01:43:48;-4.40;99.90
10443;DHT22;5269;51.146;16.986;2023-03-01T01:46:22;-4.30;99.90
10443;DHT22;5269;51.146;16.986;2023-03-01T01:48:55;-4.30;99.90
10443;DHT22;5269;51.146;16.986;2023-03-01T01:51:25;-4.30;99.90
10443;DHT22;5269;51.146;16.986;2023-03-01T01:53:59;-4.40;99.90
10443;DHT22;5269;51.146;16.986;2023-03-01T01:56:29;-4.40;99.90
10443;DHT22;5269;51.146;16.986;2023-03-01T01:58:56;-4.60;99.90
10443;DHT22;5269;51.146;16.986;2023-03-01T02:01:24;-4.60;99.90
10443;DHT22;5269;51.146;16.986;2023-03-01T02:03:52;-4.60;99.90
10443;DHT22;5269;51.146;16.986;2023-03-01T02:06:21;-4.60;99.90
10443;DHT22;5269;51.146;16.986;2023-03-01T02:08:55;-4.50;99.90
10443;DHT22;5269;51.146;16.986;2023-03-01T02:11:24;-4.60;99.90
10443;DHT22;5269;51.146;16.986;2023-03-01T02:13:54;-4.60;99.90
10443;DHT22;5269;51.146;16.986;2023-03-01T02:16:21;-4.50;99.90
10443;DHT22;5269;51.146;16.986;2023-03-01T02:18:50;-4.50;99.90
10443;DHT22;5269;51.146;16.986;2023-03-01T02:21:30;-4.50;99.90
10443;DHT22;5269;51.146;16.986;2023-03-01T02:24:05;-4.50;99.90
10443;DHT22;5269;51.146;16.986;2023-03-01T02:26:42;-4.60;99.90
10443;DHT22;5269;51.146;16.986;2023-03-01T02:29:12;-4.70;99.90
10443;DHT22;5269;51.146;16.986;2023-03-01T02:31:39;-4.80;99.90
10443;DHT22;5269;51.146;16.986;2023-03-01T02:34:12;-4.80;99.90
10443;DHT22;5269;51.146;16.986;2023-03-01T02:36:42;-4.90;99.90
10443;DHT22;5269;51.146;16.986;2023-03-01T02:39:17;-4.90;99.90
10443;DHT22;5269;51.146;16.986;2023-03-01T02:41:48;-4.80;99.90
10443;DHT22;5269;51.146;16.986;2023-03-01T02:44:17;-4.80;99.90
10443;DHT22;5269;51.146;16.986;2023-03-01T02:46:46;-4.80;99.90
10443;DHT22;5269;51.146;16.986;2023-03-01T02:49:20;-4.80;99.90
10443;DHT22;5269;51.146;16.986;2023-03-01T02:51:56;-4.90;99.90
10443;DHT22;5269;51.146;16.986;2023-03-01T02:54:31;-4.90;99.90
10443;DHT22;5269;51.146;16.986;2023-03-01T02:57:01;-4.90;99.90
10443;DHT22;5269;51.146;16.986;2023-03-01T02:59:33;-4.90;99.90
10443;DHT22;5269;51.146;16.986;2023-03-01T03:02:04;-4.90;99.90
10443;DHT22;5269;51.146;16.986;2023-03-01T03:04:31;-5.00;99.90
10443;DHT22;5269;51.146;16.986;2023-03-01T03:06:58;-4.90;99.90
10443;DHT22;5269;51.146;16.986;2023-03-01T03:09:25;-4.90;99.90
10443;DHT22;5269;51.146;16.986;2023-03-01T03:11:52;-4.90;99.90
10443;DHT22;5269;51.146;16.986;2023-03-01T03:14:19;-4.90;99.90
10443;DHT22;5269;51.146;16.986;2023-03-01T03:16:49;-5.00;99.90
10443;DHT22;5269;51.146;16.986;2023-03-01T03:19:17;-5.00;99.90
10443;DHT22;5269;51.146;16.986;2023-03-01T03:21:44;-5.10;99.90
10443;DHT22;5269;51.146;16.986;2023-03-01T03:24:11;-5.10;99.90
10443;DHT22;5269;51.146;16.986;2023-03-01T03:26:38;-5.10;99.90
10443;DHT22;5269;51.146;16.986;2023-03-01T03:29:04;-5.10;99.90
10443;DHT22;5269;51.146;16.986;2023-03-01T03:31:32;-5.00;99.90
10443;DHT22;5269;51.146;16.986;2023-03-01T03:36:27;-4.70;99.90
10443;DHT22;5269;51.146;16.986;2023-03-01T03:38:54;-4.80;99.90
10443;DHT22;5269;51.146;16.986;2023-03-01T03:41:21;-4.80;99.90
10443;DHT22;5269;51.146;16.986;2023-03-01T03:43:48;-4.80;99.90
10443;DHT22;5269;51.146;16.986;2023-03-01T03:46:15;-4.80;99.90
10443;DHT22;5269;51.146;16.986;2023-03-01T03:48:44;-4.90;99.90
10443;DHT22;5269;51.146;16.986;2023-03-01T03:51:14;-5.00;99.90
10443;DHT22;5269;51.146;16.986;2023-03-01T03:53:42;-5.00;99.90
10443;DHT22;5269;51.146;16.986;2023-03-01T03:56:10;-5.10;99.90
10443;DHT22;5269;51.146;16.986;2023-03-01T03:58:37;-5.10;99.90
10443;DHT22;5269;51.146;16.986;2023-03-01T04:01:04;-5.10;99.90
10443;DHT22;5269;51.146;16.986;2023-03-01T04:03:32;-5.20;99.90
10443;DHT22;5269;51.146;16.986;2023-03-01T04:06:00;-5.30;99.90
10443;DHT22;5269;51.146;16.986;2023-03-01T04:08:29;-5.30;99.90
10443;DHT22;5269;51.146;16.986;2023-03-01T04:11:01;-5.30;99.90
10443;DHT22;5269;51.146;16.986;2023-03-01T04:13:48;-5.20;99.90
10443;DHT22;5269;51.146;16.986;2023-03-01T04:16:16;-5.20;99.90
10443;DHT22;5269;51.146;16.986;2023-03-01T04:18:43;-5.20;99.90
10443;DHT22;5269;51.146;16.986;2023-03-01T04:21:10;-5.20;99.90
10443;DHT22;5269;51.146;16.986;2023-03-01T04:23:38;-5.00;99.90
10443;DHT22;5269;51.146;16.986;2023-03-01T04:26:06;-4.90;99.90
10443;DHT22;5269;51.146;16.986;2023-03-01T04:28:35;-4.90;99.90
10443;DHT22;5269;51.146;16.986;2023-03-01T04:31:04;-5.00;99.90
10443;DHT22;5269;51.146;16.986;2023-03-01T04:33:39;-5.00;99.90
10443;DHT22;5269;51.146;16.986;2023-03-01T04:36:07;-5.10;99.90
10443;DHT22;5269;51.146;16.986;2023-03-01T04:38:35;-5.20;99.90
10443;DHT22;5269;51.146;16.986;2023-03-01T04:41:04;-5.20;99.90
10443;DHT22;5269;51.146;16.986;2023-03-01T04:43:31;-5.20;99.90
10443;DHT22;5269;51.146;16.986;2023-03-01T04:46:03;-5.30;99.90
10443;DHT22;5269;51.146;16.986;2023-03-01T04:48:31;-5.50;99.90
10443;DHT22;5269;51.146;16.986;2023-03-01T04:50:59;-5.50;99.90
10443;DHT22;5269;51.146;16.986;2023-03-01T04:53:26;-5.40;99.90
10443;DHT22;5269;51.146;16.986;2023-03-01T04:55:54;-5.50;99.90
10443;DHT22;5269;51.146;16.986;2023-03-01T04:58:23;-5.50;99.90
10443;DHT22;5269;51.146;16.986;2023-03-01T05:00:50;-5.50;99.90
10443;DHT22;5269;51.146;16.986;2023-03-01T05:03:17;-5.50;99.90
10443;DHT22;5269;51.146;16.986;2023-03-01T05:05:46;-5.60;99.90
10443;DHT22;5269;51.146;16.986;2023-03-01T05:08:13;-5.60;99.90
10443;DHT22;5269;51.146;16.986;2023-03-01T05:10:45;-5.50;99.90
10443;DHT22;5269;51.146;16.986;2023-03-01T05:13:12;-5.50;99.90
10443;DHT22;5269;51.146;16.986;2023-03-01T05:15:41;-5.50;99.90
10443;DHT22;5269;51.146;16.986;2023-03-01T05:18:08;-5.50;99.90
10443;DHT22;5269;51.146;16.986;2023-03-01T05:20:37;-5.50;99.90
10443;DHT22;5269;51.146;16.986;2023-03-01T05:23:04;-5.50;99.90
10443;DHT22;5269;51.146;16.986;2023-03-01T05:25:32;-5.40;99.90
10443;DHT22;5269;51.146;16.986;2023-03-01T05:27:59;-5.30;99.90
10443;DHT22;5269;51.146;16.986;2023-03-01T05:30:30;-5.30;99.90
10443;DHT22;5269;51.146;16.986;2023-03-01T05:32:58;-5.40;99.90
10443;DHT22;5269;51.146;16.986;2023-03-01T05:35:25;-5.40;99.90
10443;DHT22;5269;51.146;16.986;2023-03-01T05:37:53;-5.50;99.90
10443;DHT22;5269;51.146;16.986;2023-03-01T05:40:21;-5.50;99.90
10443;DHT22;5269;51.146;16.986;2023-03-01T05:42:51;-5.60;99.90
10443;DHT22;5269;51.146;16.986;2023-03-01T05:45:18;-5.50;99.90
10443;DHT22;5269;51.146;16.986;2023-03-01T05:47:47;-5.60;99.90
10443;DHT22;5269;51.146;16.986;2023-03-01T05:50:17;-5.50;99.90
10443;DHT22;5269;51.146;16.986;2023-03-01T05:52:46;-5.40;99.90
10443;DHT22;5269;51.146;16.986;2023-03-01T05:55:14;-5.40;99.90
10443;DHT22;5269;51.146;16.986;2023-03-01T05:57:41;-5.40;99.90
10443;DHT22;5269;51.146;16.986;2023-03-01T06:00:09;-5.30;99.90
10443;DHT22;5269;51.146;16.986;2023-03-01T06:02:36;-5.30;99.90
10443;DHT22;5269;51.146;16.986;2023-03-01T06:05:04;-5.20;99.90
10443;DHT22;5269;51.146;16.986;2023-03-01T06:07:32;-5.20;99.90
10443;DHT22;5269;51.146;16.986;2023-03-01T06:10:00;-5.20;99.90
10443;DHT22;5269;51.146;16.986;2023-03-01T06:12:30;-5.10;99.90
10443;DHT22;5269;51.146;16.986;2023-03-01T06:14:57;-5.10;99.90
10443;DHT22;5269;51.146;16.986;2023-03-01T06:17:24;-5.00;99.90
10443;DHT22;5269;51.146;16.986;2023-03-01T06:19:51;-5.00;99.90
10443;DHT22;5269;51.146;16.986;2023-03-01T06:22:18;-4.90;99.90
10443;DHT22;5269;51.146;16.986;2023-03-01T06:24:47;-4.80;99.90
10443;DHT22;5269;51.146;16.986;2023-03-01T06:27:14;-4.80;99.90
10443;DHT22;5269;51.146;16.986;2023-03-01T06:29:41;-4.70;99.90
10443;DHT22;5269;51.146;16.986;2023-03-01T06:32:07;-4.60;99.90
10443;DHT22;5269;51.146;16.986;2023-03-01T06:34:34;-4.50;99.90
10443;DHT22;5269;51.146;16.986;2023-03-01T06:37:01;-4.50;99.90
10443;DHT22;5269;51.146;16.986;2023-03-01T06:39:32;-4.30;99.90
10443;DHT22;5269;51.146;16.986;2023-03-01T06:42:00;-4.20;99.90
10443;DHT22;5269;51.146;16.986;2023-03-01T06:44:27;-4.10;99.90
10443;DHT22;5269;51.146;16.986;2023-03-01T06:46:54;-3.90;99.90
10443;DHT22;5269;51.146;16.986;2023-03-01T06:49:21;-3.80;99.90
10443;DHT22;5269;51.146;16.986;2023-03-01T06:51:48;-3.70;99.90
10443;DHT22;5269;51.146;16.986;2023-03-01T06:54:15;-3.60;99.90
10443;DHT22;5269;51.146;16.986;2023-03-01T06:56:43;-3.40;99.90
10443;DHT22;5269;51.146;16.986;2023-03-01T06:59:11;-3.20;99.90
10443;DHT22;5269;51.146;16.986;2023-03-01T07:01:38;-3.00;99.90
10443;DHT22;5269;51.146;16.986;2023-03-01T07:04:05;-2.90;99.90
10443;DHT22;5269;51.146;16.986;2023-03-01T07:06:32;-2.70;99.90
10443;DHT22;5269;51.146;16.986;2023-03-01T07:08:59;-2.70;99.90
10443;DHT22;5269;51.146;16.986;2023-03-01T07:11:26;-2.50;99.90
10443;DHT22;5269;51.146;16.986;2023-03-01T07:13:52;-2.40;99.90
10443;DHT22;5269;51.146;16.986;2023-03-01T07:16:22;-2.30;99.90
10443;DHT22;5269;51.146;16.986;2023-03-01T07:18:49;-2.20;99.90
10443;DHT22;5269;51.146;16.986;2023-03-01T07:21:15;-2.00;99.90
10443;DHT22;5269;51.146;16.986;2023-03-01T07:23:43;-1.90;99.90
10443;DHT22;5269;51.146;16.986;2023-03-01T07:26:10;-1.80;99.90
10443;DHT22;5269;51.146;16.986;2023-03-01T07:28:36;-1.70;99.90
10443;DHT22;5269;51.146;16.986;2023-03-01T07:31:05;-1.60;99.90
10443;DHT22;5269;51.146;16.986;2023-03-01T07:33:33;-1.50;99.90
10443;DHT22;5269;51.146;16.986;2023-03-01T07:36:02;-1.40;99.90
10443;DHT22;5269;51.146;16.986;2023-03-01T07:38:29;-1.30;99.90
10443;DHT22;5269;51.146;16.986;2023-03-01T07:41:00;-1.20;99.90
10443;DHT22;5269;51.146;16.986;2023-03-01T07:43:27;-0.90;99.90
10443;DHT22;5269;51.146;16.986;2023-03-01T07:45:54;-0.70;99.90
10443;DHT22;5269;51.146;16.986;2023-03-01T07:48:21;-0.70;99.90
10443;DHT22;5269;51.146;16.986;2023-03-01T07:50:49;-0.60;99.90
10443;DHT22;5269;51.146;16.986;2023-03-01T07:53:16;-0.30;99.90
10443;DHT22;5269;51.146;16.986;2023-03-01T07:55:43;-0.20;99.90
10443;DHT22;5269;51.146;16.986;2023-03-01T07:58:10;-0.20;99.90
10443;DHT22;5269;51.146;16.986;2023-03-01T08:00:36;-0.10;99.90
10443;DHT22;5269;51.146;16.986;2023-03-01T08:03:03;-0.10;99.90
10443;DHT22;5269;51.146;16.986;2023-03-01T08:05:30;0.00;99.90
10443;DHT22;5269;51.146;16.986;2023-03-01T08:07:58;0.10;99.90
10443;DHT22;5269;51.146;16.986;2023-03-01T08:10:25;0.10;99.90
10443;DHT22;5269;51.146;16.986;2023-03-01T08:12:52;0.20;1.00
10443;DHT22;5269;51.146;16.986;2023-03-01T08:15:21;0.40;1.00
10443;DHT22;5269;51.146;16.986;2023-03-01T08:17:49;0.50;1.00
10443;DHT22;5269;51.146;16.986;2023-03-01T08:20:16;0.70;99.90
10443;DHT22;5269;51.146;16.986;2023-03-01T08:22:43;0.80;99.90
10443;DHT22;5269;51.146;16.986;2023-03-01T08:25:11;0.90;99.90
10443;DHT22;5269;51.146;16.986;2023-03-01T08:27:38;0.90;93.50
10443;DHT22;5269;51.146;16.986;2023-03-01T08:30:06;0.90;1.00
10443;DHT22;5269;51.146;16.986;2023-03-01T08:32:36;1.00;1.00
10443;DHT22;5269;51.146;16.986;2023-03-01T08:35:03;1.20;99.90
10443;DHT22;5269;51.146;16.986;2023-03-01T08:37:30;1.30;99.90
10443;DHT22;5269;51.146;16.986;2023-03-01T08:39:58;1.40;99.90
10443;DHT22;5269;51.146;16.986;2023-03-01T08:42:26;1.60;99.90
10443;DHT22;5269;51.146;16.986;2023-03-01T08:44:53;1.50;99.90
10443;DHT22;5269;51.146;16.986;2023-03-01T08:47:20;1.80;99.90
10443;DHT22;5269;51.146;16.986;2023-03-01T08:49:48;1.80;99.90
10443;DHT22;5269;51.146;16.986;2023-03-01T08:52:15;1.70;99.90
10443;DHT22;5269;51.146;16.986;2023-03-01T08:54:42;1.80;99.90
10443;DHT22;5269;51.146;16.986;2023-03-01T08:57:09;1.80;99.90
10443;DHT22;5269;51.146;16.986;2023-03-01T08:59:37;1.80;99.90
10443;DHT22;5269;51.146;16.986;2023-03-01T09:02:04;1.90;99.90
10443;DHT22;5269;51.146;16.986;2023-03-01T09:04:31;1.90;99.90
10443;DHT22;5269;51.146;16.986;2023-03-01T09:06:58;1.80;99.90
10443;DHT22;5269;51.146;16.986;2023-03-01T09:09:25;1.90;99.90
10443;DHT22;5269;51.146;16.986;2023-03-01T09:11:52;1.90;99.90
10443;DHT22;5269;51.146;16.986;2023-03-01T09:14:19;1.90;99.90
10443;DHT22;5269;51.146;16.986;2023-03-01T09:16:47;1.90;99.90
10443;DHT22;5269;51.146;16.986;2023-03-01T09:19:14;2.00;90.90
10443;DHT22;5269;51.146;16.986;2023-03-01T09:21:41;2.10;64.00
10443;DHT22;5269;51.146;16.986;2023-03-01T09:24:19;2.30;38.50
10443;DHT22;5269;51.146;16.986;2023-03-01T09:26:46;2.40;20.50
10443;DHT22;5269;51.146;16.986;2023-03-01T09:29:14;2.40;1.00
10443;DHT22;5269;51.146;16.986;2023-03-01T09:31:41;2.60;1.00
10443;DHT22;5269;51.146;16.986;2023-03-01T09:34:09;2.60;1.00
10443;DHT22;5269;51.146;16.986;2023-03-01T09:36:37;2.50;1.00
10443;DHT22;5269;51.146;16.986;2023-03-01T09:39:04;2.60;1.00
10443;DHT22;5269;51.146;16.986;2023-03-01T09:41:47;2.50;1.00
10443;DHT22;5269;51.146;16.986;2023-03-01T09:44:22;2.40;1.00
10443;DHT22;5269;51.146;16.986;2023-03-01T09:46:50;2.70;1.00
10443;DHT22;5269;51.146;16.986;2023-03-01T09:49:21;2.60;1.00
10443;DHT22;5269;51.146;16.986;2023-03-01T09:51:55;2.20;1.00
10443;DHT22;5269;51.146;16.986;2023-03-01T09:54:22;2.30;1.00
10443;DHT22;5269;51.146;16.986;2023-03-01T09:56:59;2.40;1.00
10443;DHT22;5269;51.146;16.986;2023-03-01T09:59:32;2.40;1.00
10443;DHT22;5269;51.146;16.986;2023-03-01T10:02:17;2.60;1.00
10443;DHT22;5269;51.146;16.986;2023-03-01T10:04:51;2.70;1.00
10443;DHT22;5269;51.146;16.986;2023-03-01T10:07:29;3.20;1.00
10443;DHT22;5269;51.146;16.986;2023-03-01T10:09:58;3.30;1.00
10443;DHT22;5269;51.146;16.986;2023-03-01T10:12:30;3.40;1.00
10443;DHT22;5269;51.146;16.986;2023-03-01T10:15:05;3.30;1.00
10443;DHT22;5269;51.146;16.986;2023-03-01T10:17:38;3.20;1.00
10443;DHT22;5269;51.146;16.986;2023-03-01T10:20:19;3.00;1.00
10443;DHT22;5269;51.146;16.986;2023-03-01T10:22:47;3.00;1.00
10443;DHT22;5269;51.146;16.986;2023-03-01T10:25:20;3.00;1.00
10443;DHT22;5269;51.146;16.986;2023-03-01T10:27:53;3.30;1.00
10443;DHT22;5269;51.146;16.986;2023-03-01T10:30:22;3.50;1.00
10443;DHT22;5269;51.146;16.986;2023-03-01T10:32:57;3.70;1.00
10443;DHT22;5269;51.146;16.986;2023-03-01T10:35:29;4.00;1.00
10443;DHT22;5269;51.146;16.986;2023-03-01T10:38:03;4.00;1.00
10443;DHT22;5269;51.146;16.986;2023-03-01T10:40:31;4.20;1.00
10443;DHT22;5269;51.146;16.986;2023-03-01T10:43:00;4.20;1.00
10443;DHT22;5269;51.146;16.986;2023-03-01T10:45:32;4.30;1.00
10443;DHT22;5269;51.146;16.986;2023-03-01T10:48:11;4.40;1.00
10443;DHT22;5269;51.146;16.986;2023-03-01T10:50:40;4.50;1.00
10443;DHT22;5269;51.146;16.986;2023-03-01T10:53:24;4.50;1.00
10443;DHT22;5269;51.146;16.986;2023-03-01T10:56:00;4.50;1.00
10443;DHT22;5269;51.146;16.986;2023-03-01T10:58:28;4.50;1.00
10443;DHT22;5269;51.146;16.986;2023-03-01T11:00:57;4.30;1.00
10443;DHT22;5269;51.146;16.986;2023-03-01T11:03:25;4.50;1.00
10443;DHT22;5269;51.146;16.986;2023-03-01T11:06:03;4.60;1.00
10443;DHT22;5269;51.146;16.986;2023-03-01T11:08:36;4.80;1.00
10443;DHT22;5269;51.146;16.986;2023-03-01T11:11:06;4.80;1.00
10443;DHT22;5269;51.146;16.986;2023-03-01T11:13:33;4.90;1.00
10443;DHT22;5269;51.146;16.986;2023-03-01T11:16:03;4.90;1.00
10443;DHT22;5269;51.146;16.986;2023-03-01T11:18:31;4.70;1.00
10443;DHT22;5269;51.146;16.986;2023-03-01T11:21:00;4.70;1.00
10443;DHT22;5269;51.146;16.986;2023-03-01T11:23:29;4.80;1.00
10443;DHT22;5269;51.146;16.986;2023-03-01T11:25:59;4.90;1.00
10443;DHT22;5269;51.146;16.986;2023-03-01T11:28:28;5.10;1.00
10443;DHT22;5269;51.146;16.986;2023-03-01T11:31:02;5.10;1.00
10443;DHT22;5269;51.146;16.986;2023-03-01T11:33:43;5.00;1.00
10443;DHT22;5269;51.146;16.986;2023-03-01T11:36:27;4.80;1.00
10443;DHT22;5269;51.146;16.986;2023-03-01T11:38:55;5.00;1.00
10443;DHT22;5269;51.146;16.986;2023-03-01T11:41:26;5.10;1.00
10443;DHT22;5269;51.146;16.986;2023-03-01T11:43:57;5.30;1.00
10443;DHT22;5269;51.146;16.986;2023-03-01T11:49:47;5.30;1.00
10443;DHT22;5269;51.146;16.986;2023-03-01T11:52:23;5.20;1.00
10443;DHT22;5269;51.146;16.986;2023-03-01T11:55:11;5.30;1.00
10443;DHT22;5269;51.146;16.986;2023-03-01T11:57:54;5.40;1.00
10443;DHT22;5269;51.146;16.986;2023-03-01T12:00:40;5.30;1.00
10443;DHT22;5269;51.146;16.986;2023-03-01T12:03:26;5.40;1.00
10443;DHT22;5269;51.146;16.986;2023-03-01T12:06:18;5.60;1.00
10443;DHT22;5269;51.146;16.986;2023-03-01T12:09:01;5.60;1.00
10443;DHT22;5269;51.146;16.986;2023-03-01T12:11:39;5.70;1.00
10443;DHT22;5269;51.146;16.986;2023-03-01T12:14:32;5.70;1.00
10443;DHT22;5269;51.146;16.986;2023-03-01T12:20:11;5.60;1.00
10443;DHT22;5269;51.146;16.986;2023-03-01T12:22:48;5.50;1.00
10443;DHT22;5269;51.146;16.986;2023-03-01T12:25:24;5.20;1.00
10443;DHT22;5269;51.146;16.986;2023-03-01T12:28:24;5.30;1.00
10443;DHT22;5269;51.146;16.986;2023-03-01T12:31:31;5.40;1.00
10443;DHT22;5269;51.146;16.986;2023-03-01T12:34:05;5.40;1.00
10443;DHT22;5269;51.146;16.986;2023-03-01T12:36:47;5.60;1.00
10443;DHT22;5269;51.146;16.986;2023-03-01T12:39:36;5.50;1.00
10443;DHT22;5269;51.146;16.986;2023-03-01T12:42:13;5.60;1.00
10443;DHT22;5269;51.146;16.986;2023-03-01T12:44:58;5.60;1.00
10443;DHT22;5269;51.146;16.986;2023-03-01T12:47:49;5.60;1.00
10443;DHT22;5269;51.146;16.986;2023-03-01T12:50:21;5.70;1.00
10443;DHT22;5269;51.146;16.986;2023-03-01T12:52:51;5.80;1.00
10443;DHT22;5269;51.146;16.986;2023-03-01T12:55:28;5.80;1.00
10443;DHT22;5269;51.146;16.986;2023-03-01T12:58:04;5.70;1.00
10443;DHT22;5269;51.146;16.986;2023-03-01T13:00:38;5.80;1.00
10443;DHT22;5269;51.146;16.986;2023-03-01T13:03:17;5.90;1.00
10443;DHT22;5269;51.146;16.986;2023-03-01T13:05:56;6.00;1.00
10443;DHT22;5269;51.146;16.986;2023-03-01T13:08:31;6.00;1.00
10443;DHT22;5269;51.146;16.986;2023-03-01T13:11:02;6.00;1.00
10443;DHT22;5269;51.146;16.986;2023-03-01T13:13:31;6.00;1.00
10443;DHT22;5269;51.146;16.986;2023-03-01T13:16:38;6.10;1.00
10443;DHT22;5269;51.146;16.986;2023-03-01T13:19:12;6.10;1.00
10443;DHT22;5269;51.146;16.986;2023-03-01T13:21:40;6.10;1.00
10443;DHT22;5269;51.146;16.986;2023-03-01T13:24:26;6.20;1.00
10443;DHT22;5269;51.146;16.986;2023-03-01T13:27:10;6.20;1.00
10443;DHT22;5269;51.146;16.986;2023-03-01T13:29:44;6.10;1.00
10443;DHT22;5269;51.146;16.986;2023-03-01T13:32:21;6.20;1.00
10443;DHT22;5269;51.146;16.986;2023-03-01T13:34:56;6.10;1.00
10443;DHT22;5269;51.146;16.986;2023-03-01T13:37:29;6.10;1.00
10443;DHT22;5269;51.146;16.986;2023-03-01T13:39:58;6.10;1.00
10443;DHT22;5269;51.146;16.986;2023-03-01T13:42:41;6.00;1.00
10443;DHT22;5269;51.146;16.986;2023-03-01T13:45:33;6.00;1.00
10443;DHT22;5269;51.146;16.986;2023-03-01T13:48:08;5.90;1.00
10443;DHT22;5269;51.146;16.986;2023-03-01T13:50:42;5.90;1.00
10443;DHT22;5269;51.146;16.986;2023-03-01T13:53:15;5.90;1.00
10443;DHT22;5269;51.146;16.986;2023-03-01T13:55:46;5.70;1.00
10443;DHT22;5269;51.146;16.986;2023-03-01T13:58:22;5.80;1.00
10443;DHT22;5269;51.146;16.986;2023-03-01T14:00:56;5.90;1.00
10443;DHT22;5269;51.146;16.986;2023-03-01T14:03:25;5.90;1.00
10443;DHT22;5269;51.146;16.986;2023-03-01T14:06:01;5.90;1.00
10443;DHT22;5269;51.146;16.986;2023-03-01T14:08:30;5.90;1.00
10443;DHT22;5269;51.146;16.986;2023-03-01T14:14:16;6.00;1.00
10443;DHT22;5269;51.146;16.986;2023-03-01T14:16:49;6.00;1.00
10443;DHT22;5269;51.146;16.986;2023-03-01T14:19:23;6.00;1.00
10443;DHT22;5269;51.146;16.986;2023-03-01T14:21:59;6.10;1.00
10443;DHT22;5269;51.146;16.986;2023-03-01T14:24:27;6.20;1.00
10443;DHT22;5269;51.146;16.986;2023-03-01T14:26:54;6.10;1.00
10443;DHT22;5269;51.146;16.986;2023-03-01T14:29:26;6.00;1.00
10443;DHT22;5269;51.146;16.986;2023-03-01T14:31:53;6.00;1.00
10443;DHT22;5269;51.146;16.986;2023-03-01T14:34:23;6.10;1.00
10443;DHT22;5269;51.146;16.986;2023-03-01T14:36:50;6.10;1.00
10443;DHT22;5269;51.146;16.986;2023-03-01T14:39:19;6.10;1.00
10443;DHT22;5269;51.146;16.986;2023-03-01T14:41:47;6.10;1.00
10443;DHT22;5269;51.146;16.986;2023-03-01T14:44:19;6.00;1.00
10443;DHT22;5269;51.146;16.986;2023-03-01T14:46:52;6.00;1.00
10443;DHT22;5269;51.146;16.986;2023-03-01T14:49:23;6.10;1.00
10443;DHT22;5269;51.146;16.986;2023-03-01T14:51:54;6.10;1.00
10443;DHT22;5269;51.146;16.986;2023-03-01T14:54:24;6.10;1.00
10443;DHT22;5269;51.146;16.986;2023-03-01T14:56:53;6.00;1.00
10443;DHT22;5269;51.146;16.986;2023-03-01T14:59:22;6.20;1.00
10443;DHT22;5269;51.146;16.986;2023-03-01T15:01:50;6.20;1.00
10443;DHT22;5269;51.146;16.986;2023-03-01T15:04:18;6.20;1.00
10443;DHT22;5269;51.146;16.986;2023-03-01T15:06:50;6.20;1.00
10443;DHT22;5269;51.146;16.986;2023-03-01T15:09:18;6.40;1.00
10443;DHT22;5269;51.146;16.986;2023-03-01T15:11:45;6.40;1.00
10443;DHT22;5269;51.146;16.986;2023-03-01T15:14:40;6.40;1.00
10443;DHT22;5269;51.146;16.986;2023-03-01T15:17:26;6.30;1.00
10443;DHT22;5269;51.146;16.986;2023-03-01T15:19:54;6.30;1.00
10443;DHT22;5269;51.146;16.986;2023-03-01T15:22:24;6.30;1.00
10443;DHT22;5269;51.146;16.986;2023-03-01T15:24:52;6.40;1.00
10443;DHT22;5269;51.146;16.986;2023-03-01T15:27:20;6.40;1.00
10443;DHT22;5269;51.146;16.986;2023-03-01T15:29:49;6.30;1.00
10443;DHT22;5269;51.146;16.986;2023-03-01T15:32:27;6.30;1.00
10443;DHT22;5269;51.146;16.986;2023-03-01T15:34:55;6.30;1.00
10443;DHT22;5269;51.146;16.986;2023-03-01T15:37:40;6.20;1.00
10443;DHT22;5269;51.146;16.986;2023-03-01T15:40:21;6.30;1.00
10443;DHT22;5269;51.146;16.986;2023-03-01T15:42:50;6.20;1.00
10443;DHT22;5269;51.146;16.986;2023-03-01T15:45:23;6.10;1.00
10443;DHT22;5269;51.146;16.986;2023-03-01T15:47:54;6.10;1.00
10443;DHT22;5269;51.146;16.986;2023-03-01T15:50:29;6.10;1.00
10443;DHT22;5269;51.146;16.986;2023-03-01T15:53:01;5.90;1.00
10443;DHT22;5269;51.146;16.986;2023-03-01T15:55:32;5.90;1.00
10443;DHT22;5269;51.146;16.986;2023-03-01T15:58:01;5.70;1.00
10443;DHT22;5269;51.146;16.986;2023-03-01T16:00:29;5.40;1.00
10443;DHT22;5269;51.146;16.986;2023-03-01T16:02:56;5.40;1.00
10443;DHT22;5269;51.146;16.986;2023-03-01T16:05:26;5.30;1.00
10443;DHT22;5269;51.146;16.986;2023-03-01T16:07:54;5.30;1.00
10443;DHT22;5269;51.146;16.986;2023-03-01T16:10:23;5.10;1.00
10443;DHT22;5269;51.146;16.986;2023-03-01T16:12:51;5.00;1.00
10443;DHT22;5269;51.146;16.986;2023-03-01T16:15:20;4.90;1.00
10443;DHT22;5269;51.146;16.986;2023-03-01T16:17:47;4.80;1.00
10443;DHT22;5269;51.146;16.986;2023-03-01T16:20:15;4.70;1.00